Time;durP1;ratioP1;P1;durP2;ratioP2;P2;SDS_P1;SDS_P2;PMS_P1;PMS_P2;Temp;Humidity;BMP_temperature;BMP_pressure;BME280_temperature;BME280_humidity;BME280_pressure;Samples;Min_cycle;Max_cycle;Signal;HPM_P1;HPM_P2
2022/05/12 00:00:51;;;;;;;11.82;7.38;;;;;;;14.81;67.72;100508.88;5107456;28;20106;-31
2022/05/12 00:03:17;;;;;;;11.82;7.80;;;;;;;14.71;66.84;100511.34;5107415;28;20020;-29
2022/05/12 00:05:46;;;;;;;13.15;7.07;;;;;;;14.56;66.82;100497.59;5107100;28;20495;-28
2022/05/12 00:08:12;;;;;;;12.45;6.75;;;;;;;14.31;67.35;100503.97;5088594;28;20035;-29
2022/05/12 00:10:39;;;;;;;9.48;6.95;;;;;;;14.19;68.06;100511.19;5088967;28;20040;-30
2022/05/12 00:13:06;;;;;;;9.18;6.65;;;;;;;14.31;67.17;100497.78;5088924;28;20137;-35
2022/05/12 00:15:34;;;;;;;10.93;6.97;;;;;;;14.70;66.72;100506.22;5088337;28;20030;-30
2022/05/12 00:18:04;;;;;;;10.07;7.00;;;;;;;14.26;68.38;100514.56;5088865;28;20032;-29
2022/05/12 00:20:32;;;;;;;9.90;6.93;;;;;;;14.72;65.92;100510.28;5106779;28;20498;-31
2022/05/12 00:23:19;;;;;;;13.40;7.22;;;;;;;14.78;67.63;100513.91;5089021;28;20040;-30
2022/05/12 00:25:47;;;;;;;8.95;6.57;;;;;;;14.21;69.18;100511.78;5088306;28;20031;-30
2022/05/12 00:28:14;;;;;;;10.05;6.53;;;;;;;13.93;69.76;100502.50;5088482;28;20036;-29
2022/05/12 00:30:40;;;;;;;11.73;7.10;;;;;;;14.02;68.75;100495.78;5106785;28;20038;-31
2022/05/12 00:33:07;;;;;;;8.70;6.68;;;;;;;14.09;68.63;100517.13;5107032;28;20032;-32
2022/05/12 00:35:33;;;;;;;10.32;6.88;;;;;;;14.35;66.68;100518.56;5088140;28;20044;-35
2022/05/12 00:37:58;;;;;;;11.30;7.13;;;;;;;14.12;66.81;100505.09;5088929;28;20039;-29
2022/05/12 00:40:24;;;;;;;12.32;7.55;;;;;;;14.22;66.59;100514.22;5110909;28;20047;-31
2022/05/12 00:42:58;;;;;;;10.52;6.93;;;;;;;14.07;68.34;100511.97;5110843;28;20571;-30
2022/05/12 00:45:26;;;;;;;13.23;7.43;;;;;;;13.72;70.27;100513.78;5092251;28;20059;-31
2022/05/12 00:47:52;;;;;;;10.60;7.03;;;;;;;13.41;72.39;100512.97;5092145;28;20027;-30
2022/05/12 00:50:19;;;;;;;11.63;7.43;;;;;;;13.30;73.75;100505.69;5092215;28;20028;-29
2022/05/12 00:52:45;;;;;;;11.05;7.80;;;;;;;13.07;74.52;100501.81;5092082;28;20704;-29
2022/05/12 00:55:20;;;;;;;9.80;7.32;;;;;;;13.00;73.80;100511.81;5110485;28;20488;-31
2022/05/12 00:57:49;;;;;;;12.13;8.02;;;;;;;13.17;71.71;100490.56;5110318;28;20036;-30
2022/05/12 01:00:16;;;;;;;10.43;7.05;;;;;;;13.49;70.42;100515.34;5091705;28;20027;-33
2022/05/12 01:02:46;;;;;;;10.95;6.95;;;;;;;12.89;73.11;100512.53;5110371;28;20131;-29
2022/05/12 01:05:12;;;;;;;11.93;6.97;;;;;;;12.92;73.31;100520.13;5091898;28;20043;-31
2022/05/12 01:07:38;;;;;;;11.77;7.57;;;;;;;12.74;72.77;100500.34;5091539;28;20019;-31
2022/05/12 01:10:05;;;;;;;10.30;7.18;;;;;;;12.67;73.41;100504.94;5110307;28;20020;-37
2022/05/12 01:12:32;;;;;;;14.27;8.02;;;;;;;12.95;71.17;100504.41;5109930;28;20027;-28
2022/05/12 01:14:58;;;;;;;10.95;6.40;;;;;;;13.01;69.89;100516.09;5091637;28;20020;-28
2022/05/12 01:17:24;;;;;;;12.85;7.55;;;;;;;12.79;72.15;100516.56;5110235;28;20098;-32
2022/05/12 01:19:51;;;;;;;10.85;7.57;;;;;;;12.96;71.81;100516.78;5110012;28;20039;-30
2022/05/12 01:22:48;;;;;;;11.57;7.07;;;;;;;12.98;73.32;100529.94;5110116;28;20040;-28
2022/05/12 01:25:17;;;;;;;10.27;6.97;;;;;;;12.62;72.98;100515.50;5089766;28;20058;-29
2022/05/12 01:27:43;;;;;;;10.15;6.72;;;;;;;12.53;72.92;100530.22;5091018;28;20036;-32
2022/05/12 01:30:11;;;;;;;11.85;7.75;;;;;;;12.55;73.47;100533.47;5091525;28;20042;-29
2022/05/12 01:32:37;;;;;;;10.60;7.30;;;;;;;12.73;73.49;100522.81;5091328;28;20070;-30
2022/05/12 01:35:04;;;;;;;11.52;6.78;;;;;;;12.71;72.19;100511.50;5109670;28;20425;-29
2022/05/12 01:37:30;;;;;;;11.50;6.93;;;;;;;12.76;71.58;100508.97;5090890;28;20074;-30
2022/05/12 01:39:57;;;;;;;11.57;6.90;;;;;;;13.23;70.78;100522.63;5087667;28;20155;-28
2022/05/12 01:42:22;;;;;;;11.45;7.22;;;;;;;12.86;70.87;100511.13;5089277;28;20032;-30
2022/05/12 01:44:48;;;;;;;10.35;7.65;;;;;;;12.92;71.25;100506.75;5087489;28;20038;-29
2022/05/12 01:47:15;;;;;;;12.50;8.07;;;;;;;13.11;71.88;100531.66;5087850;28;20073;-28
2022/05/12 01:49:42;;;;;;;10.70;7.60;;;;;;;12.52;73.34;100536.56;5087964;28;20036;-35
2022/05/12 01:52:10;;;;;;;11.88;7.43;;;;;;;12.25;74.97;100518.91;5087017;28;20059;-31
2022/05/12 01:54:36;;;;;;;11.48;7.35;;;;;;;12.50;72.93;100538.66;5087585;28;20768;-30
2022/05/12 01:57:02;;;;;;;9.50;7.40;;;;;;;12.77;71.46;100518.63;5087760;28;20570;-32
2022/05/12 01:59:27;;;;;;;12.65;7.47;;;;;;;12.67;72.78;100529.03;5087471;28;20122;-28
2022/05/12 02:01:53;;;;;;;11.52;7.97;;;;;;;12.71;73.75;100532.06;5088862;28;20020;-33
2022/05/12 02:04:18;;;;;;;12.32;8.02;;;;;;;12.63;74.24;100530.53;5089100;28;20088;-29
2022/05/12 02:06:44;;;;;;;12.13;7.93;;;;;;;12.53;73.54;100511.47;5088717;28;20024;-28
2022/05/12 02:09:11;;;;;;;10.43;7.80;;;;;;;12.84;72.73;100534.63;5087549;28;20028;-30
2022/05/12 02:11:37;;;;;;;11.10;8.00;;;;;;;12.54;72.83;100547.88;5087312;28;20066;-33
2022/05/12 02:14:04;;;;;;;11.18;7.63;;;;;;;12.26;73.74;100528.56;5088842;28;20059;-30
2022/05/12 02:16:31;;;;;;;13.00;7.97;;;;;;;12.15;74.16;100525.78;5087311;28;20024;-28
2022/05/12 02:18:56;;;;;;;13.07;7.50;;;;;;;12.08;74.93;100533.06;5088964;28;20036;-29
2022/05/12 02:21:22;;;;;;;12.25;7.97;;;;;;;12.08;75.68;100549.09;5088451;28;20024;-29
2022/05/12 02:23:47;;;;;;;11.43;7.60;;;;;;;12.08;75.43;100527.72;5087055;28;20035;-28
2022/05/12 02:26:15;;;;;;;10.65;7.38;;;;;;;11.94;75.55;100551.84;5088421;28;20841;-31
2022/05/12 02:28:41;;;;;;;10.75;7.95;;;;;;;12.14;75.09;100556.25;5086971;28;20036;-38
2022/05/12 02:31:06;;;;;;;11.05;8.40;;;;;;;11.40;77.33;100529.09;5088353;28;20110;-30
2022/05/12 02:33:32;;;;;;;13.57;8.20;;;;;;;11.44;78.13;100549.84;5087911;28;20112;-31
2022/05/12 02:35:57;;;;;;;12.55;9.05;;;;;;;11.24;78.47;100531.22;5088167;28;20034;-31
2022/05/12 02:38:23;;;;;;;13.18;9.43;;;;;;;11.37;78.96;100543.69;5089868;28;20067;-30
2022/05/12 02:40:49;;;;;;;14.05;8.85;;;;;;;11.54;77.34;100538.69;5090214;28;20418;-34
2022/05/12 02:43:24;;;;;;;13.80;9.18;;;;;;;11.65;77.46;100538.00;5108366;28;20034;-31
2022/05/12 02:45:50;;;;;;;13.55;8.95;;;;;;;11.76;78.17;100562.41;5108303;28;20061;-29
2022/05/12 02:48:18;;;;;;;13.38;7.93;;;;;;;11.93;75.30;100566.25;5089720;28;20035;-30
2022/05/12 02:50:43;;;;;;;12.20;9.02;;;;;;;11.79;74.85;100551.28;5089828;28;20023;-31
2022/05/12 02:53:08;;;;;;;14.27;9.15;;;;;;;11.82;74.64;100542.84;5108363;28;20035;-37
2022/05/12 02:55:34;;;;;;;12.55;8.45;;;;;;;12.04;73.96;100549.50;5107957;28;20027;-29
2022/05/12 02:57:59;;;;;;;10.70;8.40;;;;;;;12.14;73.49;100556.25;5108086;28;20058;-30
2022/05/12 03:00:25;;;;;;;12.57;8.02;;;;;;;11.89;73.83;100557.03;5108013;28;20015;-34
2022/05/12 03:02:50;;;;;;;11.60;8.80;;;;;;;12.12;72.89;100575.16;5107970;28;20032;-28
2022/05/12 03:05:16;;;;;;;11.38;7.80;;;;;;;12.11;72.38;100564.69;5108050;28;20039;-33
2022/05/12 03:07:41;;;;;;;15.10;8.15;;;;;;;12.02;72.03;100567.63;5107954;28;20023;-30
2022/05/12 03:10:08;;;;;;;13.75;8.77;;;;;;;12.43;71.52;100585.00;5089416;28;20031;-29
2022/05/12 03:12:34;;;;;;;11.77;7.55;;;;;;;12.19;70.81;100543.03;5089527;28;20032;-29
2022/05/12 03:15:00;;;;;;;10.60;7.70;;;;;;;12.19;72.13;100577.78;5107953;28;20035;-30
2022/05/12 03:17:26;;;;;;;13.52;8.52;;;;;;;12.53;72.29;100581.03;5089195;28;20031;-31
2022/05/12 03:19:51;;;;;;;12.30;8.70;;;;;;;12.30;72.91;100573.59;5107377;28;20019;-37
2022/05/12 03:22:17;;;;;;;13.65;8.73;;;;;;;12.18;73.95;100584.19;5107629;28;20396;-31
2022/05/12 03:24:43;;;;;;;14.07;8.55;;;;;;;12.01;73.48;100559.81;5107655;28;20027;-33
2022/05/12 03:27:09;;;;;;;13.60;7.68;;;;;;;12.05;73.93;100588.59;5089312;28;20038;-31
2022/05/12 03:29:35;;;;;;;13.20;8.07;;;;;;;12.00;73.53;100574.22;5107539;28;20031;-31
2022/05/12 03:32:01;;;;;;;10.70;7.88;;;;;;;12.30;74.55;100595.81;5106767;28;20039;-30
2022/05/12 03:34:26;;;;;;;11.98;8.50;;;;;;;11.96;76.18;100597.88;5107186;28;20692;-28
2022/05/12 03:36:51;;;;;;;12.98;8.10;;;;;;;12.10;75.23;100582.59;5107563;28;20039;-34
2022/05/12 03:39:17;;;;;;;15.73;8.05;;;;;;;12.52;73.61;100600.78;5071662;28;20056;-29
2022/05/12 03:41:42;;;;;;;12.10;7.93;;;;;;;12.59;72.41;100606.91;5088748;28;20485;-31
2022/05/12 03:46:53;;;;;;;11.48;7.40;;;;;;;12.59;72.68;100612.25;5107579;28;20039;-29
2022/05/12 03:49:18;;;;;;;13.23;8.02;;;;;;;12.70;72.37;100613.41;5107174;28;20044;-31
2022/05/12 03:51:45;;;;;;;15.88;9.27;;;;;;;12.89;72.56;100620.41;5107100;28;20464;-31
2022/05/12 03:54:11;;;;;;;14.65;8.82;;;;;;;12.38;76.15;100610.75;5106850;28;20100;-30
2022/05/12 03:56:37;;;;;;;12.20;8.43;;;;;;;12.24;76.73;100604.72;5107101;28;20032;-28
2022/05/12 03:59:05;;;;;;;14.23;9.07;;;;;;;12.82;73.71;100604.44;5088816;28;20031;-29
2022/05/12 04:01:31;;;;;;;;;;;;;;;12.85;74.67;100622.72;5088834;28;20495;-30
2022/05/12 04:03:57;;;;;;;14.65;9.63;;;;;;;12.65;75.35;100601.50;5107184;28;19908;-34
2022/05/12 04:06:22;;;;;;;14.65;9.00;;;;;;;12.97;73.08;100609.41;5107158;28;20031;-30
2022/05/12 04:08:48;;;;;;;22.25;9.75;;;;;;;12.93;73.80;100604.75;5107068;28;20020;-35
2022/05/12 04:11:14;;;;;;;18.58;8.55;;;;;;;12.91;74.31;100641.63;5106993;28;20035;-31
2022/05/12 04:13:41;;;;;;;16.88;9.32;;;;;;;12.82;74.63;100617.00;5108060;28;20030;-30
2022/05/12 04:16:06;;;;;;;13.82;8.52;;;;;;;13.09;74.41;100643.50;5092765;28;20031;-30
2022/05/12 04:18:32;;;;;;;13.75;10.30;;;;;;;13.30;74.21;100636.94;5111651;28;20022;-29
2022/05/12 04:20:57;;;;;;;14.95;9.65;;;;;;;13.23;74.35;100624.41;5092864;28;20395;-29
2022/05/12 04:23:23;;;;;;;15.88;10.55;;;;;;;13.61;72.33;100625.25;5111233;28;20023;-28
2022/05/12 04:25:48;;;;;;;14.23;10.57;;;;;;;13.89;71.82;100648.78;5111231;28;20055;-29
2022/05/12 04:28:14;;;;;;;19.42;10.35;;;;;;;14.07;71.59;100646.06;5111055;28;20023;-29
2022/05/12 04:30:39;;;;;;;13.68;10.23;;;;;;;14.24;70.92;100640.91;5092471;28;20028;-30
2022/05/12 04:35:50;;;;;;;12.18;9.25;;;;;;;14.21;71.02;100629.81;5110928;28;20153;-29
2022/05/12 04:38:15;;;;;;;15.50;9.82;;;;;;;14.34;71.39;100652.94;5110568;28;20049;-34
2022/05/12 04:40:41;;;;;;;16.27;10.38;;;;;;;14.19;72.18;100650.69;5092417;28;20445;-30
2022/05/12 04:43:06;;;;;;;13.38;9.35;;;;;;;14.13;72.11;100643.53;5092160;28;20035;-30
2022/05/12 04:45:33;;;;;;;14.05;9.68;;;;;;;14.22;71.47;100652.88;5110667;28;20039;-29
2022/05/12 04:47:58;;;;;;;11.77;9.75;;;;;;;14.14;71.72;100645.16;5110720;28;20505;-29
2022/05/12 04:50:30;;;;;;;13.77;9.48;;;;;;;14.43;71.36;100660.44;5110877;28;20028;-28
2022/05/12 04:52:56;;;;;;;15.52;10.18;;;;;;;14.30;71.38;100632.97;5092204;28;20059;-31
2022/05/12 04:55:22;;;;;;;15.35;9.90;;;;;;;14.44;71.07;100634.41;5110481;28;20062;-30
2022/05/12 04:57:50;;;;;;;13.32;10.35;;;;;;;14.46;71.21;100635.84;5091618;28;20084;-31
2022/05/12 05:00:36;;;;;;;14.18;10.48;;;;;;;14.62;72.10;100660.38;5092219;28;20495;-29
2022/05/12 05:03:03;;;;;;;13.57;10.48;;;;;;;14.55;71.62;100627.44;5091958;28;20042;-29
2022/05/12 05:05:29;;;;;;;15.27;11.25;;;;;;;14.76;71.14;100647.56;5091892;28;20487;-35
2022/05/12 05:07:54;;;;;;;16.38;10.63;;;;;;;15.04;70.59;100657.63;5091526;28;20046;-29
2022/05/12 05:10:21;;;;;;;14.95;9.93;;;;;;;14.95;69.95;100634.84;5110215;28;20073;-29
2022/05/12 05:12:47;;;;;;;16.85;10.07;;;;;;;14.92;68.92;100640.69;5091845;28;20069;-31
2022/05/12 05:15:14;;;;;;;13.55;10.10;;;;;;;14.94;70.22;100644.78;5110046;28;20531;-29
2022/05/12 05:17:41;;;;;;;13.13;9.98;;;;;;;14.97;70.43;100654.22;5091584;28;20028;-29
2022/05/12 05:20:11;;;;;;;13.25;9.77;;;;;;;15.02;70.40;100646.28;5091614;28;20123;-30
2022/05/12 05:22:37;;;;;;;15.75;9.93;;;;;;;15.21;69.38;100634.34;5091639;28;20032;-31
2022/05/12 05:25:03;;;;;;;14.38;9.77;;;;;;;15.31;68.50;100646.38;5090448;28;20047;-29
2022/05/12 05:27:29;;;;;;;13.77;11.05;;;;;;;15.62;69.24;100662.09;5109951;28;20023;-39
2022/05/12 05:29:54;;;;;;;12.02;9.48;;;;;;;15.82;67.56;100666.28;5109903;28;20050;-29
2022/05/12 05:32:21;;;;;;;13.85;10.30;;;;;;;15.64;67.80;100643.84;5091502;28;20032;-29
2022/05/12 05:34:47;;;;;;;11.60;9.32;;;;;;;15.51;68.04;100657.56;5091241;28;20620;-29
2022/05/12 05:37:13;;;;;;;13.40;9.48;;;;;;;15.76;67.54;100643.84;5091122;28;20023;-31
2022/05/12 05:39:38;;;;;;;17.60;9.32;;;;;;;16.09;66.71;100666.53;5090897;28;20111;-32
2022/05/12 05:42:13;;;;;;;11.82;8.90;;;;;;;15.93;66.63;100661.91;5108427;28;20078;-34
2022/05/12 05:44:39;;;;;;;13.52;9.73;;;;;;;16.26;66.50;100669.25;5090067;28;20028;-31
2022/05/12 05:47:05;;;;;;;12.35;8.63;;;;;;;16.19;65.84;100661.31;5089124;28;20100;-36
2022/05/12 05:49:32;;;;;;;12.52;9.10;;;;;;;16.32;65.03;100657.50;5088829;28;20332;-29
2022/05/12 05:54:42;;;;;;;14.80;8.13;;;;;;;16.61;64.18;100676.31;5088895;28;20094;-31
2022/05/12 05:57:07;;;;;;;10.18;8.05;;;;;;;16.51;63.87;100674.28;5096358;27;20066;-30
2022/05/12 05:59:33;;;;;;;10.95;8.27;;;;;;;16.45;64.10;100659.09;5109013;28;20035;-30
2022/05/12 06:01:59;;;;;;;9.90;7.72;;;;;;;16.82;63.73;100669.44;5073657;28;20556;-32
2022/05/12 06:04:25;;;;;;;10.88;8.15;;;;;;;16.80;63.75;100682.28;5109022;28;20028;-31
2022/05/12 06:06:51;;;;;;;12.43;8.55;;;;;;;16.91;63.51;100659.03;5090781;28;20482;-30
2022/05/12 06:09:17;;;;;;;14.23;8.68;;;;;;;17.03;62.47;100681.31;5109016;28;20051;-32
2022/05/12 06:11:44;;;;;;;11.48;8.40;;;;;;;16.86;64.76;100670.56;5090253;28;20430;-32
2022/05/12 06:14:09;;;;;;;13.82;8.85;;;;;;;17.14;62.15;100656.16;5107190;28;20027;-29
2022/05/12 06:16:35;;;;;;;11.75;8.32;;;;;;;17.38;62.42;100680.19;5108804;28;20028;-29
2022/05/12 06:19:01;;;;;;;12.07;8.07;;;;;;;17.48;61.53;100674.94;5108471;28;20043;-30
2022/05/12 06:21:28;;;;;;;11.27;7.63;;;;;;;17.56;61.30;100679.09;5090531;28;20039;-31
2022/05/12 06:23:53;;;;;;;12.52;8.32;;;;;;;17.57;61.54;100651.88;5106863;28;20042;-32
2022/05/12 06:26:20;;;;;;;10.35;8.18;;;;;;;17.70;61.25;100620.19;5108864;28;20031;-32
2022/05/12 06:28:47;;;;;;;13.80;8.27;;;;;;;17.93;58.81;100668.50;5090334;28;20457;-29
2022/05/12 06:31:24;;;;;;;13.65;7.80;;;;;;;17.89;58.36;100670.06;5090031;28;20024;-32
2022/05/12 06:33:53;;;;;;;13.68;8.63;;;;;;;18.01;59.05;100659.94;5108226;28;20031;-30
2022/05/12 06:36:18;;;;;;;11.45;7.82;;;;;;;18.17;59.25;100660.94;5089805;28;20035;-30
2022/05/12 06:38:43;;;;;;;10.82;7.80;;;;;;;18.08;59.07;100648.94;5108128;28;20056;-29
2022/05/12 06:41:09;;;;;;;11.50;7.53;;;;;;;18.51;58.29;100662.56;5108698;28;20063;-29
2022/05/12 06:43:36;;;;;;;11.23;8.00;;;;;;;18.45;57.77;100643.66;5108079;28;20157;-33
2022/05/12 06:46:02;;;;;;;10.35;7.75;;;;;;;18.80;57.40;100646.91;5089660;28;20038;-29
2022/05/12 06:48:28;;;;;;;14.93;8.43;;;;;;;18.79;57.94;100645.28;5089963;28;20423;-31
2022/05/12 06:50:54;;;;;;;13.00;7.78;;;;;;;18.72;58.33;100650.88;5108145;28;20023;-35
2022/05/12 06:53:20;;;;;;;11.80;8.25;;;;;;;18.93;58.81;100667.28;5089779;28;20106;-31
2022/05/12 06:55:46;;;;;;;12.95;7.80;;;;;;;18.83;57.60;100628.28;5107691;28;20028;-31
2022/05/12 06:58:16;;;;;;;11.25;7.55;;;;;;;19.10;58.02;100649.00;5089520;28;20028;-30
2022/05/12 07:00:42;;;;;;;11.45;8.40;;;;;;;19.45;57.73;100655.66;5089195;28;20058;-31
2022/05/12 07:03:09;;;;;;;13.13;8.23;;;;;;;19.47;56.11;100657.03;5089603;28;20035;-29
2022/05/12 07:05:34;;;;;;;12.23;9.00;;;;;;;19.23;57.24;100637.72;5089362;28;20061;-31
2022/05/12 07:08:00;;;;;;;13.88;9.18;;;;;;;19.59;56.93;100648.69;5107727;28;20024;-33
2022/05/12 07:10:26;;;;;;;10.98;8.02;;;;;;;19.77;56.44;100657.44;5108019;28;20024;-29
2022/05/12 07:12:53;;;;;;;11.95;8.77;;;;;;;20.05;54.76;100659.69;5107519;28;20032;-29
2022/05/12 07:15:18;;;;;;;12.18;8.57;;;;;;;20.29;55.77;100648.38;5089044;28;20058;-31
2022/05/12 07:17:44;;;;;;;13.40;8.48;;;;;;;20.43;53.92;100654.88;5107453;28;20055;-34
2022/05/12 07:28:26;;;;;;;11.70;8.20;;;;;;;20.72;53.33;100627.25;5107561;28;20034;-33
2022/05/12 07:31:00;;;;;;;11.27;7.90;;;;;;;20.86;51.54;100641.88;5089101;28;20138;-30
2022/05/12 07:33:27;;;;;;;12.77;8.32;;;;;;;20.87;53.57;100642.69;5088810;28;20031;-32
2022/05/12 07:35:53;;;;;;;11.23;7.40;;;;;;;21.01;51.72;100643.75;5088377;28;20403;-34
2022/05/12 07:38:18;;;;;;;12.15;7.57;;;;;;;21.42;52.18;100623.81;5106949;28;20028;-29
2022/05/12 07:40:44;;;;;;;10.52;7.60;;;;;;;22.00;50.63;100642.28;5107623;28;20023;-32
2022/05/12 07:43:09;;;;;;;10.35;7.22;;;;;;;21.74;50.51;100633.47;5107255;28;20066;-29
2022/05/12 07:45:35;;;;;;;10.75;6.90;;;;;;;21.60;50.49;100628.66;5107157;28;20048;-29
2022/05/12 07:48:01;;;;;;;11.15;7.45;;;;;;;21.64;50.48;100632.44;5087945;28;20031;-30
2022/05/12 07:50:28;;;;;;;11.90;7.72;;;;;;;22.11;49.89;100626.72;5107115;28;20031;-33
2022/05/12 07:52:56;;;;;;;10.53;6.67;;;;;;;22.51;49.25;100632.97;5105826;28;20036;-30
2022/05/12 07:55:22;;;;;;;11.25;7.18;;;;;;;22.89;47.48;100627.75;5088801;28;20380;-38
2022/05/12 07:57:47;;;;;;;9.68;6.47;;;;;;;22.98;49.79;100626.81;5106961;28;20095;-33
2022/05/12 08:00:13;;;;;;;8.82;6.43;;;;;;;22.90;47.53;100637.50;5107270;28;20118;-32
2022/05/12 08:02:39;;;;;;;9.18;6.03;;;;;;;22.43;48.48;100629.78;5088668;28;20515;-30
2022/05/12 08:05:05;;;;;;;12.95;7.25;;;;;;;22.89;49.35;100639.44;5088439;28;20038;-30
2022/05/12 08:07:31;;;;;;;9.63;6.40;;;;;;;23.30;48.04;100632.78;5088658;28;20177;-33
2022/05/12 08:10:00;;;;;;;8.80;6.50;;;;;;;23.66;48.43;100639.38;5107106;28;20027;-30
2022/05/12 08:12:26;;;;;;;8.43;6.05;;;;;;;23.41;45.54;100636.97;5088663;28;20510;-29
2022/05/12 08:14:52;;;;;;;9.88;5.97;;;;;;;23.73;46.54;100635.50;5088315;28;20080;-30
2022/05/12 08:17:18;;;;;;;10.77;5.70;;;;;;;23.53;47.30;100633.84;5106272;28;20031;-32
2022/05/12 08:19:43;;;;;;;8.27;5.25;;;;;;;23.80;46.77;100641.41;5106125;28;20015;-31
2022/05/12 08:22:09;;;;;;;7.32;5.40;;;;;;;23.90;45.16;100638.53;5088250;28;20058;-30
2022/05/12 08:24:35;;;;;;;7.78;4.80;;;;;;;23.53;44.02;100629.19;5106868;28;20024;-29
2022/05/12 08:27:00;;;;;;;8.52;5.32;;;;;;;23.80;44.79;100644.13;5106582;28;20059;-33
2022/05/12 08:29:26;;;;;;;9.23;6.10;;;;;;;23.79;42.72;100642.53;5088281;28;20035;-29
2022/05/12 08:31:51;;;;;;;9.05;5.30;;;;;;;24.16;43.43;100630.00;5106413;28;20036;-31
2022/05/12 08:34:16;;;;;;;9.93;5.20;;;;;;;24.23;43.75;100624.97;5106356;28;20035;-36
2022/05/12 08:36:42;;;;;;;15.07;6.38;;;;;;;24.33;42.57;100624.78;5106363;28;20038;-31
2022/05/12 08:39:07;;;;;;;10.50;6.55;;;;;;;24.45;42.29;100619.69;5106623;28;20052;-30
2022/05/12 08:41:46;;;;;;;11.70;5.88;;;;;;;24.81;44.66;100624.56;5088115;28;20015;-29
2022/05/12 08:44:20;;;;;;;10.23;5.90;;;;;;;24.84;44.52;100613.03;5106587;28;20039;-30
2022/05/12 08:46:55;;;;;;;9.40;5.50;;;;;;;25.00;41.20;100626.41;5087800;28;20027;-29
2022/05/12 08:49:28;;;;;;;10.65;5.75;;;;;;;24.86;44.10;100629.91;5088289;28;20036;-35
2022/05/12 08:52:31;;;;;;;11.82;5.13;;;;;;;25.01;45.03;100638.94;5088085;28;20119;-34
2022/05/12 08:55:01;;;;;;;13.15;5.47;;;;;;;25.23;42.29;100641.81;5106496;28;20028;-33
2022/05/12 08:57:35;;;;;;;9.25;5.30;;;;;;;25.49;39.71;100637.75;5087718;28;20035;-29
2022/05/12 09:00:06;;;;;;;7.50;4.80;;;;;;;25.56;38.82;100633.50;5089733;28;20031;-31
2022/05/12 09:03:08;;;;;;;7.28;5.00;;;;;;;25.60;39.16;100625.47;5091862;28;20027;-31
2022/05/12 09:05:42;;;;;;;8.05;4.97;;;;;;;25.55;39.79;100631.88;5109579;28;20034;-30
2022/05/12 09:08:07;;;;;;;9.90;4.95;;;;;;;25.96;39.92;100625.53;5091819;28;20027;-30
2022/05/12 09:10:55;;;;;;;9.00;4.80;;;;;;;26.34;39.39;100608.78;5109749;28;20469;-33
2022/05/12 09:13:24;;;;;;;8.55;4.90;;;;;;;26.66;38.69;100604.16;5091473;28;20027;-31
2022/05/12 09:16:11;;;;;;;10.63;4.95;;;;;;;26.38;37.60;100620.69;5090986;28;20043;-32
2022/05/12 09:18:37;;;;;;;;;;;;;;;26.59;36.80;100622.94;5110734;28;20091;-35
2022/05/12 09:21:07;;;;;;;6.05;4.28;;;;;;;26.32;38.03;100600.06;5091710;28;19918;-30
2022/05/12 09:23:35;;;;;;;7.20;3.78;;;;;;;26.50;36.73;100616.56;5091366;28;20023;-31
2022/05/12 09:26:00;;;;;;;8.23;4.43;;;;;;;26.72;36.40;100624.78;5109971;28;20028;-30
2022/05/12 09:28:35;;;;;;;9.07;4.05;;;;;;;26.92;37.48;100611.69;5109789;28;20039;-30
2022/05/12 09:31:19;;;;;;;7.47;3.92;;;;;;;26.50;34.80;100625.59;5091522;28;20042;-30
2022/05/12 09:33:51;;;;;;;6.25;3.80;;;;;;;26.31;34.28;100603.91;5109611;28;20035;-31
2022/05/12 09:36:23;;;;;;;5.82;3.38;;;;;;;26.96;33.69;100612.66;5108406;28;20043;-35
2022/05/12 09:38:54;;;;;;;6.82;3.85;;;;;;;27.10;35.14;100618.84;5090898;28;20143;-34
2022/05/12 09:41:36;;;;;;;8.50;4.05;;;;;;;27.55;35.14;100623.34;5091541;28;20034;-31
2022/05/12 09:44:22;;;;;;;6.90;3.75;;;;;;;27.62;32.87;100613.53;5091107;28;20028;-30
2022/05/12 09:46:55;;;;;;;5.30;3.20;;;;;;;27.80;32.10;100608.84;5109567;28;20103;-31
2022/05/12 09:49:23;;;;;;;17.77;4.13;;;;;;;27.59;30.06;100603.19;5090794;28;20623;-34
2022/05/12 09:51:49;;;;;;;7.40;2.63;;;;;;;28.17;28.12;100614.81;5109221;28;20059;-30
2022/05/12 09:54:41;;;;;;;4.93;2.78;;;;;;;28.14;28.53;100617.44;5109264;28;20063;-30
2022/05/12 09:57:12;;;;;;;4.38;2.60;;;;;;;28.71;26.62;100614.44;5105700;28;20051;-30
2022/05/12 09:59:40;;;;;;;4.55;2.65;;;;;;;28.55;27.33;100611.41;5108657;28;20035;-32
2022/05/12 10:07:53;;;;;;;5.80;3.00;;;;;;;28.62;26.56;100602.66;5090831;28;20388;-37
2022/05/12 10:08:04;;;;;;;5.53;2.60;;;;;;;28.31;25.87;100587.22;5109213;28;20100;-31
2022/05/12 10:10:30;;;;;;;8.85;2.55;;;;;;;28.79;27.16;100599.03;5090669;28;20487;-32
2022/05/12 10:13:04;;;;;;;5.28;2.75;;;;;;;29.21;27.22;100583.53;5108595;28;20026;-31
2022/05/12 10:15:29;;;;;;;4.40;2.78;;;;;;;29.30;30.71;100591.75;5090608;28;20028;-40
2022/05/12 10:18:13;;;;;;;7.13;3.08;;;;;;;29.87;27.66;100584.84;5109253;28;20030;-31
2022/05/12 10:20:46;;;;;;;7.07;3.13;;;;;;;29.82;25.26;100574.88;5109092;28;20024;-32
2022/05/12 10:23:30;;;;;;;6.53;3.03;;;;;;;29.07;25.29;100582.94;5090523;28;20111;-32
2022/05/12 10:26:26;;;;;;;4.13;2.65;;;;;;;28.82;26.78;100582.72;5107260;28;20032;-32
2022/05/12 10:28:57;;;;;;;5.00;2.75;;;;;;;28.73;25.24;100579.22;5107181;28;20042;-36
2022/05/12 10:31:34;;;;;;;3.97;2.60;;;;;;;28.76;26.12;100573.06;5108707;28;20019;-30
2022/05/12 10:34:37;;;;;;;6.55;2.55;;;;;;;28.74;24.87;100567.09;5090383;28;20124;-29
2022/05/12 10:37:25;;;;;;;16.40;3.00;;;;;;;29.20;24.57;100576.44;5108194;28;20051;-31
2022/05/12 10:40:05;;;;;;;7.53;2.67;;;;;;;28.84;26.96;100569.47;5107982;28;20504;-33
2022/05/12 10:42:57;;;;;;;7.25;2.70;;;;;;;29.16;25.26;100570.00;5108698;28;20028;-30
2022/05/12 10:45:51;;;;;;;7.28;2.40;;;;;;;29.76;23.73;100567.19;5108457;28;20043;-30
2022/05/12 10:48:41;;;;;;;6.07;2.28;;;;;;;29.93;22.46;100575.25;5034617;28;20048;-36
2022/05/12 10:51:34;;;;;;;4.82;2.47;;;;;;;30.02;24.28;100566.94;5089991;28;20032;-33
2022/05/12 10:54:21;;;;;;;5.00;2.10;;;;;;;30.42;19.64;100564.47;5108280;28;20084;-32
2022/05/12 10:57:13;;;;;;;3.40;2.20;;;;;;;30.81;20.73;100550.38;5090016;28;20043;-30
2022/05/12 10:59:57;;;;;;;3.72;2.30;;;;;;;31.08;22.45;100550.84;5074993;28;20067;-32
2022/05/12 11:02:35;;;;;;;4.40;2.67;;;;;;;30.39;24.06;100556.06;5108151;28;20031;-30
2022/05/12 11:05:09;;;;;;;6.57;2.50;;;;;;;30.65;22.66;100550.28;5108150;28;20479;-30
2022/05/12 11:08:07;;;;;;;7.22;2.80;;;;;;;30.58;24.33;100544.50;5089461;28;20491;-30
2022/05/12 11:10:48;;;;;;;4.63;2.83;;;;;;;30.36;28.36;100543.81;5107073;28;20043;-37
2022/05/12 11:13:23;;;;;;;3.55;2.45;;;;;;;30.32;31.20;100526.38;5089654;28;20028;-30
2022/05/12 11:16:02;;;;;;;4.60;2.63;;;;;;;30.56;23.78;100535.78;5089359;28;20745;-30
2022/05/12 11:18:30;;;;;;;6.22;2.83;;;;;;;30.13;25.59;100540.63;5107764;28;20088;-30
2022/05/12 11:21:04;;;;;;;5.15;2.78;;;;;;;30.19;26.96;100513.69;5089190;28;20023;-32
2022/05/12 11:23:38;;;;;;;5.95;3.00;;;;;;;30.33;30.48;100533.47;5089159;28;20027;-36
2022/05/12 11:26:07;;;;;;;4.05;2.40;;;;;;;30.37;27.87;100514.34;5107959;28;20102;-30
2022/05/12 11:31:48;;;;;;;5.10;2.58;;;;;;;31.04;23.47;100507.47;5107488;28;20561;-32
2022/05/12 11:34:25;;;;;;;6.57;2.83;;;;;;;30.47;27.26;100515.84;5089274;28;20038;-31
2022/05/12 11:36:54;;;;;;;5.20;2.55;;;;;;;31.15;24.31;100515.25;5089311;28;20591;-29
2022/05/12 11:39:19;;;;;;;3.38;2.35;;;;;;;31.17;25.59;100499.19;5105731;28;20059;-31
2022/05/12 11:41:45;;;;;;;4.88;2.30;;;;;;;31.61;25.42;100508.38;5107054;28;20027;-37
2022/05/12 11:44:34;;;;;;;5.05;2.42;;;;;;;31.58;21.33;100498.03;5107614;28;20047;-30
2022/05/12 11:47:27;;;;;;;3.80;2.10;;;;;;;31.88;22.83;100505.16;5107608;28;20063;-31
2022/05/12 11:50:29;;;;;;;5.13;2.40;;;;;;;31.60;21.72;100501.25;5088935;28;20043;-33
2022/05/12 11:53:04;;;;;;;5.80;2.22;;;;;;;31.32;22.54;100490.19;5107230;28;20493;-31